Reeds Cross Roads, North Carolina
Current Conditions -  °F | °C
As of 11:35 PM on Wednesday 22 Oct 2014 (Local Time) from KEXX Reporting Station
Clear Clear  
Wind Chill: 46°   Ceiling: Unl
Heat Index: 46°   Visibility: 10mi
Dew Point: 39°   Wind: 0mph
Humidity: 78%   Direction: NA
Pressure: 30.08"   Gusts: NA
Location:  35.7974°N, 80.2541°W
Report Text: KEXX 230335Z AUTO 00000KT 10SM CLR 08/04 A3008 RMK AO2 T00760040
Loading
Personal Weather Stations






























Interactive Weather Map
Tropical Storm Tracking
New forecast layout! Learn more

10-Day Weather Forecast

Advertisements
Track Severe Weather on mobile